createdAt,value
2022-09-02T00:00:20.414Z,44.72
2022-09-02T00:02:50.337Z,45.08
2022-09-02T00:05:21.441Z,45.08
2022-09-02T00:07:49.309Z,45.39
2022-09-02T00:10:17.205Z,45.49
2022-09-02T00:12:46.398Z,45.38
2022-09-02T00:15:14.381Z,45.57
2022-09-02T00:17:42.278Z,46.12
2022-09-02T00:20:11.359Z,45.89
2022-09-02T00:22:39.420Z,46.27
2022-09-02T00:25:08.687Z,45.61
2022-09-02T00:27:36.544Z,45.83
2022-09-02T00:30:07.597Z,46.42
2022-09-02T00:32:35.785Z,45.66
2022-09-02T00:35:03.983Z,45.61
2022-09-02T00:37:31.972Z,45.53
2022-09-02T00:39:59.961Z,45.54
2022-09-02T00:42:28.282Z,46.00
2022-09-02T00:44:56.343Z,46.23
2022-09-02T00:47:25.956Z,46.39
2022-09-02T00:49:54.983Z,46.53
2022-09-02T00:52:26.222Z,46.21
2022-09-02T00:54:58.469Z,46.56
2022-09-02T00:57:32.247Z,46.78
2022-09-02T01:00:05.866Z,46.82
2022-09-02T01:02:35.650Z,47.18
2022-09-02T01:05:04.171Z,46.80
2022-09-02T01:07:34.585Z,47.99
2022-09-02T01:10:03.389Z,48.56
2022-09-02T01:12:32.345Z,48.68
2022-09-02T01:15:00.564Z,48.88
2022-09-02T01:17:28.785Z,49.48
2022-09-02T01:20:00.585Z,48.96
2022-09-02T01:22:32.159Z,49.60
2022-09-02T01:25:05.706Z,49.70
2022-09-02T01:27:33.795Z,49.34
2022-09-02T01:30:02.668Z,49.63
2022-09-02T01:32:31.404Z,49.96
2022-09-02T01:34:59.387Z,49.74
2022-09-02T01:37:29.663Z,49.95
2022-09-02T01:39:58.000Z,49.70
2022-09-02T01:42:26.351Z,49.91
2022-09-02T01:44:54.800Z,50.53
2022-09-02T01:47:25.125Z,50.07
2022-09-02T01:49:53.856Z,50.25
2022-09-02T01:52:24.265Z,50.27
2022-09-02T01:54:54.149Z,49.64
2022-09-02T01:57:24.557Z,49.50
2022-09-02T01:59:53.133Z,49.67
2022-09-02T02:02:22.884Z,50.10
2022-09-02T02:04:51.516Z,50.32
2022-09-02T02:07:20.808Z,50.67
2022-09-02T02:09:49.533Z,51.01
2022-09-02T02:12:21.287Z,51.55
2022-09-02T02:14:49.405Z,51.58
2022-09-02T02:17:17.352Z,51.62
2022-09-02T02:19:45.222Z,51.41
2022-09-02T02:22:14.091Z,50.93
2022-09-02T02:24:41.962Z,51.15
2022-09-02T02:27:09.822Z,51.47
2022-09-02T02:29:39.040Z,51.93
2022-09-02T02:32:07.461Z,52.07
2022-09-02T02:34:35.881Z,51.90
2022-09-02T02:37:04.450Z,51.51
2022-09-02T02:39:32.658Z,51.49
2022-09-02T02:42:00.765Z,51.94
2022-09-02T02:44:29.362Z,52.44
2022-09-02T02:46:58.942Z,52.98
2022-09-02T02:49:27.922Z,52.38
2022-09-02T02:51:56.022Z,52.67
2022-09-02T02:54:24.079Z,52.43
2022-09-02T02:57:03.203Z,52.69
2022-09-02T02:59:31.981Z,53.42
2022-09-02T03:02:01.670Z,53.54
2022-09-02T03:04:29.882Z,53.55
2022-09-02T03:06:58.216Z,53.23
2022-09-02T03:09:26.237Z,53.26
2022-09-02T03:11:54.188Z,53.66
2022-09-02T03:14:22.152Z,53.56
2022-09-02T03:16:50.099Z,53.88
2022-09-02T03:19:33.265Z,53.64
2022-09-02T03:22:01.205Z,53.89
2022-09-02T03:24:29.281Z,53.99
2022-09-02T03:26:57.949Z,53.64
2022-09-02T03:29:26.648Z,54.04
2022-09-02T03:31:55.695Z,53.58
2022-09-02T03:34:26.570Z,53.78
2022-09-02T03:36:57.623Z,54.63
2022-09-02T03:39:25.724Z,54.98
2022-09-02T03:41:53.658Z,54.81
2022-09-02T03:44:21.845Z,54.20
2022-09-02T03:46:49.760Z,53.60
2022-09-02T03:49:17.651Z,53.54
2022-09-02T03:51:47.019Z,53.87
2022-09-02T03:54:15.571Z,53.43
2022-09-02T03:56:43.509Z,53.29
2022-09-02T03:59:12.894Z,53.76
2022-09-02T04:01:41.870Z,54.23
2022-09-02T04:04:10.635Z,54.35
2022-09-02T04:06:40.610Z,53.86
2022-09-02T04:09:09.857Z,54.22
2022-09-02T04:11:42.614Z,53.57
2022-09-02T04:14:11.232Z,53.58
2022-09-02T04:16:39.391Z,53.96
2022-09-02T04:19:09.461Z,54.40
2022-09-02T04:21:40.150Z,54.89
2022-09-02T04:24:11.043Z,54.44
2022-09-02T04:26:44.947Z,54.02
2022-09-02T04:29:14.723Z,54.49
2022-09-02T04:31:43.726Z,54.45
2022-09-02T04:34:12.000Z,55.23
2022-09-02T04:36:41.503Z,55.63
2022-09-02T04:39:11.916Z,57.24
2022-09-02T04:41:39.933Z,58.26
2022-09-02T04:44:10.721Z,58.12
2022-09-02T04:46:41.860Z,56.89
2022-09-02T04:49:14.398Z,57.96
2022-09-02T04:51:44.404Z,57.70
2022-09-02T04:54:13.848Z,57.31
2022-09-02T04:56:44.832Z,57.81
2022-09-02T04:59:13.857Z,55.59
2022-09-02T05:01:50.488Z,55.17
2022-09-02T05:04:22.597Z,55.31
2022-09-02T05:06:53.145Z,53.91
2022-09-02T05:09:22.617Z,54.56
2022-09-02T05:11:57.545Z,55.02
2022-09-02T05:14:28.365Z,54.80
2022-09-02T05:17:05.173Z,54.84
2022-09-02T05:19:36.730Z,55.40
2022-09-02T05:22:04.992Z,54.89
2022-09-02T05:24:38.559Z,54.13
2022-09-02T05:27:11.065Z,54.78
2022-09-02T05:29:39.097Z,53.42
2022-09-02T05:32:09.345Z,52.26
2022-09-02T05:34:40.267Z,52.25
2022-09-02T05:37:08.192Z,51.92
2022-09-02T05:39:38.477Z,50.90
2022-09-02T05:42:07.818Z,50.17
2022-09-02T05:44:37.284Z,49.33
2022-09-02T05:47:06.592Z,49.78
2022-09-02T05:49:34.673Z,50.03
2022-09-02T05:52:11.866Z,49.45
2022-09-02T05:54:51.076Z,48.32
2022-09-02T05:57:22.231Z,48.65
2022-09-02T06:00:03.207Z,48.81
2022-09-02T06:02:43.180Z,48.64
2022-09-02T06:05:26.055Z,48.69
2022-09-02T06:08:02.911Z,48.91
2022-09-02T06:10:33.902Z,47.76
2022-09-02T06:13:02.153Z,47.96
2022-09-02T06:15:33.264Z,48.32
2022-09-02T06:18:02.945Z,47.62
2022-09-02T06:20:32.655Z,47.53
2022-09-02T06:23:01.911Z,47.66
2022-09-02T06:25:29.787Z,47.05
2022-09-02T06:28:04.008Z,46.94
2022-09-02T06:30:36.318Z,47.40
2022-09-02T06:33:04.325Z,46.39
2022-09-02T06:35:33.349Z,46.01
2022-09-02T06:38:02.592Z,46.22
2022-09-02T06:40:30.749Z,46.37
2022-09-02T06:43:00.241Z,45.46
2022-09-02T06:45:33.005Z,46.07
2022-09-02T06:48:07.700Z,43.79
2022-09-02T06:50:40.934Z,43.59
2022-09-02T06:53:09.223Z,44.02
2022-09-02T06:55:40.090Z,44.39
2022-09-02T06:58:09.473Z,44.08
2022-09-02T07:00:40.867Z,44.06
2022-09-02T07:03:27.149Z,44.01
2022-09-02T07:06:09.389Z,44.83
2022-09-02T07:08:39.291Z,45.91
2022-09-02T07:11:09.322Z,45.42
2022-09-02T07:13:38.666Z,45.33
2022-09-02T07:16:07.565Z,45.76
2022-09-02T07:18:36.581Z,46.64
2022-09-02T07:21:05.565Z,46.30
2022-09-02T07:23:36.885Z,46.34
2022-09-02T07:26:13.435Z,43.54
2022-09-02T07:28:46.135Z,44.14
2022-09-02T07:31:16.549Z,44.44
2022-09-02T07:33:49.851Z,44.16
2022-09-02T07:36:21.592Z,43.81
2022-09-02T07:38:49.764Z,43.34
2022-09-02T07:41:18.013Z,42.11
2022-09-02T07:43:51.035Z,41.89
2022-09-02T07:46:21.052Z,41.28
2022-09-02T07:48:50.689Z,41.37
2022-09-02T07:51:20.065Z,41.93
2022-09-02T07:53:49.657Z,42.30
2022-09-02T07:56:18.901Z,41.48
2022-09-02T07:58:48.614Z,41.53
2022-09-02T08:01:21.212Z,41.50
2022-09-02T08:03:51.875Z,40.80
2022-09-02T08:06:27.717Z,41.85
2022-09-02T08:09:02.361Z,41.38
2022-09-02T08:11:30.198Z,41.05
2022-09-02T08:14:00.606Z,40.36
2022-09-02T08:16:28.925Z,40.13
2022-09-02T08:18:57.880Z,40.48
2022-09-02T08:21:26.475Z,39.92
2022-09-02T08:23:54.246Z,41.27
2022-09-02T08:26:22.987Z,40.67
2022-09-02T08:28:51.286Z,40.25
2022-09-02T08:31:20.481Z,41.19
2022-09-02T08:33:48.693Z,41.76
2022-09-02T08:36:16.667Z,41.00
2022-09-02T08:38:44.775Z,41.02
2022-09-02T08:41:15.599Z,40.84
2022-09-02T08:43:45.470Z,40.55
2022-09-02T08:46:17.041Z,41.03
2022-09-02T08:48:49.011Z,40.34
2022-09-02T08:51:21.283Z,39.35
2022-09-02T08:53:52.567Z,39.63
2022-09-02T08:56:20.813Z,39.44
2022-09-02T08:58:52.944Z,38.77
2022-09-02T09:01:31.302Z,39.33
2022-09-02T09:04:25.012Z,38.23
2022-09-02T09:07:13.834Z,38.28
2022-09-02T09:09:50.578Z,37.30
2022-09-02T09:12:25.749Z,37.40
2022-09-02T09:14:56.412Z,37.06
2022-09-02T09:17:28.416Z,36.59
2022-09-02T09:20:00.617Z,36.92
2022-09-02T09:22:32.376Z,36.29
2022-09-02T09:25:00.277Z,36.89
2022-09-02T09:27:28.506Z,36.55
2022-09-02T09:29:56.386Z,35.92
2022-09-02T09:32:27.686Z,34.65
2022-09-02T09:35:07.802Z,34.36
2022-09-02T09:37:38.709Z,35.21
2022-09-02T09:40:30.706Z,34.77
2022-09-02T09:45:35.162Z,34.19
2022-09-02T09:48:12.133Z,32.42
2022-09-02T09:50:41.606Z,32.71
2022-09-02T09:53:16.990Z,31.82
2022-09-02T09:55:53.766Z,31.93
2022-09-02T09:58:22.225Z,31.41
2022-09-02T10:00:50.569Z,31.25
2022-09-02T10:03:24.295Z,31.11
2022-09-02T10:05:57.102Z,30.66
2022-09-02T10:08:26.418Z,31.08
2022-09-02T10:11:00.337Z,31.95
2022-09-02T10:13:30.429Z,32.66
2022-09-02T10:16:09.128Z,32.03
2022-09-02T10:18:40.129Z,32.03
2022-09-02T10:21:14.971Z,31.15
2022-09-02T10:23:49.366Z,30.42
2022-09-02T10:29:42.780Z,28.06
2022-09-02T10:32:26.115Z,27.40
2022-09-02T10:35:04.458Z,28.14
2022-09-02T10:37:39.609Z,26.69
2022-09-02T10:40:14.307Z,26.62
2022-09-02T10:42:49.916Z,27.42
2022-09-02T10:45:25.286Z,27.49
2022-09-02T10:48:02.885Z,27.60
2022-09-02T10:50:39.387Z,27.18
2022-09-02T10:53:19.918Z,26.80
2022-09-02T10:55:54.725Z,25.66
2022-09-02T10:58:25.808Z,25.40
2022-09-02T11:00:57.116Z,26.11
2022-09-02T11:03:30.599Z,23.71
2022-09-02T11:06:06.172Z,22.74
2022-09-02T11:08:40.153Z,22.17
2022-09-02T11:11:12.258Z,21.57
2022-09-02T11:13:44.434Z,22.96
2022-09-02T11:16:17.751Z,22.10
2022-09-02T11:18:49.945Z,21.60
2022-09-02T11:21:30.438Z,20.80
2022-09-02T11:24:05.528Z,20.00
2022-09-02T11:26:38.281Z,19.88
2022-09-02T11:29:11.090Z,19.12
2022-09-02T11:31:41.544Z,16.66
2022-09-02T11:34:18.439Z,16.11
2022-09-02T11:36:46.620Z,16.24
2022-09-02T11:39:30.564Z,16.36
2022-09-02T11:42:11.846Z,17.14
2022-09-02T11:45:00.663Z,17.74
2022-09-02T11:48:10.290Z,16.74
2022-09-02T11:50:54.049Z,16.44
2022-09-02T11:53:27.605Z,16.21
2022-09-02T11:56:00.655Z,16.82
2022-09-02T11:58:35.454Z,17.19
2022-09-02T12:01:25.026Z,18.47
2022-09-02T12:04:40.062Z,19.00
2022-09-02T12:07:20.051Z,19.89
2022-09-02T12:09:53.585Z,19.72
2022-09-02T12:12:58.426Z,20.94
2022-09-02T12:15:27.989Z,20.23
2022-09-02T12:18:14.902Z,21.25
2022-09-02T12:21:06.129Z,20.77
2022-09-02T12:24:04.313Z,20.33
2022-09-02T12:27:12.485Z,19.79
2022-09-02T12:29:40.365Z,17.75
2022-09-02T12:32:09.975Z,18.38
2022-09-02T12:34:57.729Z,17.96
2022-09-02T12:37:59.043Z,17.96
2022-09-02T12:40:32.593Z,19.05
2022-09-02T12:43:05.428Z,18.53
2022-09-02T12:45:34.417Z,16.88
2022-09-02T12:48:08.181Z,16.86
2022-09-02T12:50:56.025Z,17.46
2022-09-02T12:53:33.677Z,19.07
2022-09-02T12:56:04.098Z,19.57
2022-09-02T12:58:35.836Z,19.66
2022-09-02T13:01:13.739Z,18.58
2022-09-02T13:04:04.488Z,16.77
2022-09-02T13:06:40.809Z,16.02
2022-09-02T13:09:42.713Z,15.22
2022-09-02T13:12:43.296Z,14.69
2022-09-02T13:15:23.778Z,14.49
2022-09-02T13:18:33.784Z,13.01
2022-09-02T13:21:34.837Z,13.86
2022-09-02T13:24:42.207Z,15.68
2022-09-02T13:27:34.715Z,14.65
2022-09-02T13:30:16.058Z,14.54
2022-09-02T13:32:44.530Z,14.58
2022-09-02T13:35:23.913Z,14.80
2022-09-02T13:37:55.757Z,15.62
2022-09-02T13:40:26.891Z,16.24
2022-09-02T13:42:55.866Z,16.95
2022-09-02T13:45:25.952Z,18.04
2022-09-02T13:47:55.866Z,19.15
2022-09-02T13:50:26.160Z,19.20
2022-09-02T13:55:50.112Z,17.46
2022-09-02T13:58:25.140Z,16.40
2022-09-02T14:00:58.459Z,15.18
2022-09-02T14:03:32.514Z,15.88
2022-09-02T14:06:00.654Z,15.65
2022-09-02T14:08:29.447Z,15.59
2022-09-02T14:10:58.347Z,16.92
2022-09-02T14:13:27.729Z,17.61
2022-09-02T14:16:34.596Z,17.07
2022-09-02T14:19:10.482Z,18.70
2022-09-02T14:21:40.034Z,17.98
2022-09-02T14:24:12.854Z,19.30
2022-09-02T14:26:43.606Z,19.33
2022-09-02T14:29:15.245Z,19.09
2022-09-02T14:31:44.890Z,19.58
2022-09-02T14:34:35.666Z,19.31
2022-09-02T14:37:17.535Z,17.32
2022-09-02T14:40:11.667Z,19.00
2022-09-02T14:42:55.244Z,19.15
2022-09-02T14:45:29.178Z,20.26
2022-09-02T14:48:00.814Z,20.04
2022-09-02T14:50:31.188Z,19.18
2022-09-02T14:53:04.725Z,19.98
2022-09-02T14:55:48.289Z,20.14
2022-09-02T14:58:16.565Z,20.86
2022-09-02T15:00:46.331Z,20.75
2022-09-02T15:03:17.433Z,20.57
2022-09-02T15:05:45.754Z,20.82
2022-09-02T15:08:13.814Z,21.18
2022-09-02T15:10:43.684Z,21.45
2022-09-02T15:13:13.665Z,21.17
2022-09-02T15:15:41.697Z,21.25
2022-09-02T15:18:09.575Z,21.96
2022-09-02T15:20:39.018Z,21.27
2022-09-02T15:23:06.866Z,21.99
2022-09-02T15:25:35.229Z,21.32
2022-09-02T15:28:03.320Z,21.24
2022-09-02T15:30:31.176Z,21.50
2022-09-02T15:33:04.079Z,21.54
2022-09-02T15:35:33.711Z,22.05
2022-09-02T15:38:03.406Z,21.73
2022-09-02T15:40:32.863Z,21.48
2022-09-02T15:43:01.005Z,21.54
2022-09-02T15:45:29.240Z,21.34
2022-09-02T15:47:58.543Z,22.02
2022-09-02T15:50:27.477Z,21.62
2022-09-02T15:52:56.345Z,21.37
2022-09-02T15:55:29.402Z,21.44
2022-09-02T15:57:57.603Z,21.35
2022-09-02T16:00:27.743Z,21.84
2022-09-02T16:02:57.455Z,21.89
2022-09-02T16:05:25.387Z,21.89
2022-09-02T16:07:55.115Z,22.07
2022-09-02T16:10:23.122Z,21.66
2022-09-02T16:12:52.282Z,22.43
2022-09-02T16:15:20.971Z,22.30
2022-09-02T16:17:50.016Z,21.98
2022-09-02T16:20:21.067Z,22.48
2022-09-02T16:22:49.399Z,22.90
2022-09-02T16:25:17.291Z,22.58
2022-09-02T16:27:54.927Z,22.60
2022-09-02T16:30:25.650Z,22.55
2022-09-02T16:32:54.350Z,22.76
2022-09-02T16:35:22.231Z,23.23
2022-09-02T16:37:50.312Z,23.04
2022-09-02T16:40:21.427Z,23.35
2022-09-02T16:42:49.801Z,24.13
2022-09-02T16:45:17.681Z,23.30
2022-09-02T16:47:46.917Z,23.77
2022-09-02T16:50:14.761Z,23.04
2022-09-02T16:52:43.478Z,23.70
2022-09-02T16:55:11.455Z,23.16
2022-09-02T16:57:39.296Z,23.97
2022-09-02T17:00:08.388Z,23.56
2022-09-02T17:02:36.261Z,24.34
2022-09-02T17:05:07.937Z,24.21
2022-09-02T17:07:35.794Z,24.49
2022-09-02T17:10:03.790Z,24.41
2022-09-02T17:12:31.575Z,24.58
2022-09-02T17:14:59.446Z,24.76
2022-09-02T17:17:27.259Z,25.25
2022-09-02T17:19:55.101Z,25.14
2022-09-02T17:22:24.325Z,25.01
2022-09-02T17:24:55.648Z,25.46
2022-09-02T17:27:23.473Z,25.60
2022-09-02T17:29:51.490Z,26.27
2022-09-02T17:32:19.941Z,26.78
2022-09-02T17:34:49.655Z,27.21
2022-09-02T17:37:17.577Z,28.06
2022-09-02T17:39:47.141Z,28.55
2022-09-02T17:42:14.167Z,29.09
2022-09-02T17:44:42.655Z,29.12
2022-09-02T17:47:12.160Z,29.32
2022-09-02T17:49:41.868Z,27.98
2022-09-02T17:52:09.936Z,28.60
2022-09-02T17:54:38.982Z,28.48
2022-09-02T17:57:20.646Z,29.35
2022-09-02T17:59:58.990Z,28.56
2022-09-02T18:03:22.038Z,28.93
2022-09-02T18:06:08.722Z,29.45
2022-09-02T18:08:40.069Z,28.95
2022-09-02T18:11:08.331Z,28.94
2022-09-02T18:13:54.650Z,29.51
2022-09-02T18:16:32.066Z,29.58
2022-09-02T18:19:19.825Z,28.83
2022-09-02T18:21:58.969Z,28.71
2022-09-02T18:24:36.646Z,29.29
2022-09-02T18:27:10.277Z,28.83
2022-09-02T18:29:48.051Z,29.76
2022-09-02T18:32:26.242Z,29.43
2022-09-02T18:35:01.723Z,29.64
2022-09-02T18:37:39.847Z,29.49
2022-09-02T18:40:20.214Z,29.76
2022-09-02T18:42:52.354Z,29.66
2022-09-02T18:45:25.536Z,29.95
2022-09-02T18:47:55.568Z,30.48
2022-09-02T18:50:49.078Z,29.98
2022-09-02T18:53:15.440Z,30.13
2022-09-02T18:55:45.474Z,30.44
2022-09-02T18:58:19.109Z,30.13
2022-09-02T19:00:52.087Z,30.53
2022-09-02T19:03:20.115Z,30.56
2022-09-02T19:05:48.185Z,30.69
2022-09-02T19:08:29.930Z,30.59
2022-09-02T19:11:03.810Z,30.68
2022-09-02T19:13:35.534Z,30.74
2022-09-02T19:16:05.807Z,30.83
2022-09-02T19:18:33.839Z,30.81
2022-09-02T19:21:01.814Z,30.69
2022-09-02T19:23:30.263Z,30.93
2022-09-02T19:25:59.280Z,30.79
2022-09-02T19:28:28.136Z,31.20
2022-09-02T19:31:01.095Z,31.34
2022-09-02T19:33:32.237Z,31.27
2022-09-02T19:36:00.231Z,31.22
2022-09-02T19:38:29.073Z,31.58
2022-09-02T19:40:57.076Z,31.63
2022-09-02T19:43:24.920Z,32.07
2022-09-02T19:45:52.838Z,32.08
2022-09-02T19:48:20.894Z,31.91
2022-09-02T19:50:50.276Z,32.05
2022-09-02T19:53:21.866Z,32.16
2022-09-02T19:55:51.144Z,32.33
2022-09-02T19:58:19.256Z,32.39
2022-09-02T20:00:47.815Z,32.36
2022-09-02T20:03:16.336Z,32.56
2022-09-02T20:05:44.268Z,32.92
2022-09-02T20:08:14.030Z,32.83
2022-09-02T20:10:41.951Z,33.19
2022-09-02T20:13:13.680Z,33.43
2022-09-02T20:15:41.704Z,33.24
2022-09-02T20:18:12.007Z,33.22
2022-09-02T20:20:43.875Z,33.54
2022-09-02T20:23:17.311Z,33.63
2022-09-02T20:25:57.360Z,33.76
2022-09-02T20:28:27.436Z,33.99
2022-09-02T20:31:04.445Z,34.24
2022-09-02T20:33:38.043Z,34.21
2022-09-02T20:36:14.071Z,34.42
2022-09-02T20:38:55.857Z,34.30
2022-09-02T20:41:30.989Z,34.26
2022-09-02T20:44:16.733Z,34.37
2022-09-02T20:46:59.668Z,34.45
2022-09-02T20:49:44.242Z,34.81
2022-09-02T20:52:17.465Z,35.11
2022-09-02T20:54:48.986Z,35.65
2022-09-02T20:57:26.211Z,36.11
2022-09-02T21:00:02.215Z,36.18
2022-09-02T21:02:33.219Z,36.09
2022-09-02T21:05:05.409Z,36.17
2022-09-02T21:07:36.124Z,35.99
2022-09-02T21:10:08.437Z,35.80
2022-09-02T21:12:41.257Z,35.80
2022-09-02T21:15:14.125Z,36.19
2022-09-02T21:17:48.802Z,36.31
2022-09-02T21:20:21.572Z,36.19
2022-09-02T21:22:52.639Z,35.94
2022-09-02T21:25:25.412Z,35.93
2022-09-02T21:27:57.116Z,35.92
2022-09-02T21:30:28.107Z,35.87
2022-09-02T21:32:58.436Z,35.81
2022-09-02T21:35:40.496Z,36.05
2022-09-02T21:38:11.827Z,35.87
2022-09-02T21:40:48.458Z,35.81
2022-09-02T21:43:27.938Z,36.01
2022-09-02T21:46:01.002Z,36.00
2022-09-02T21:48:34.398Z,35.85
2022-09-02T21:51:04.834Z,36.12
2022-09-02T21:53:45.740Z,36.06
2022-09-02T21:56:24.177Z,36.01
2022-09-02T21:59:16.460Z,36.46
2022-09-02T22:01:48.424Z,36.51
2022-09-02T22:04:31.476Z,36.31
2022-09-02T22:07:04.992Z,36.28
2022-09-02T22:09:34.011Z,36.97
2022-09-02T22:12:07.092Z,36.46
2022-09-02T22:14:44.302Z,36.75
2022-09-02T22:17:20.321Z,36.64
2022-09-02T22:19:54.038Z,36.58
2022-09-02T22:22:24.511Z,37.03
2022-09-02T22:24:52.616Z,36.96
2022-09-02T22:27:28.542Z,36.74
2022-09-02T22:29:59.835Z,36.78
2022-09-02T22:32:31.897Z,37.07
2022-09-02T22:35:09.404Z,36.89
2022-09-02T22:37:45.317Z,36.93
2022-09-02T22:40:15.003Z,37.00
2022-09-02T22:42:47.245Z,37.42
2022-09-02T22:45:35.473Z,37.22
2022-09-02T22:48:22.910Z,37.34
2022-09-02T22:51:16.062Z,37.04
2022-09-02T22:53:47.978Z,37.57
2022-09-02T22:56:17.685Z,37.37
2022-09-02T22:59:03.786Z,37.90
2022-09-02T23:01:38.721Z,37.72
2022-09-02T23:04:14.775Z,37.93
2022-09-02T23:06:44.793Z,37.63
2022-09-02T23:09:14.704Z,37.43
2022-09-02T23:11:52.437Z,37.44
2022-09-02T23:14:28.944Z,38.00
2022-09-02T23:17:20.540Z,38.23
2022-09-02T23:20:03.029Z,37.91
2022-09-02T23:22:44.542Z,38.12
2022-09-02T23:25:26.326Z,37.93
2022-09-02T23:28:05.025Z,37.87
2022-09-02T23:30:36.562Z,37.54
2022-09-02T23:33:17.775Z,37.79
2022-09-02T23:35:48.188Z,37.72
2022-09-02T23:38:28.062Z,37.47
2022-09-02T23:41:00.711Z,37.41
2022-09-02T23:43:29.701Z,37.55
2022-09-02T23:46:02.558Z,37.67
2022-09-02T23:48:41.868Z,37.29
2022-09-02T23:51:17.933Z,37.40
2022-09-02T23:54:17.784Z,37.50
2022-09-02T23:57:01.564Z,37.32
2022-09-02T23:59:47.318Z,37.26
